sensor_id;sensor_type;location;lat;lon;timestamp;P1;durP1;ratioP1;P2;durP2;ratioP2
45354;SDS011;31091;48.758;9.150;2022-08-01T00:01:56;3.83;;;1.90;;
45354;SDS011;31091;48.758;9.150;2022-08-01T00:04:42;4.80;;;2.03;;
45354;SDS011;31091;48.758;9.150;2022-08-01T00:07:27;6.55;;;2.10;;
45354;SDS011;31091;48.758;9.150;2022-08-01T00:10:13;3.15;;;2.00;;
45354;SDS011;31091;48.758;9.150;2022-08-01T00:12:59;5.55;;;2.70;;
45354;SDS011;31091;48.758;9.150;2022-08-01T00:15:45;4.15;;;2.35;;
45354;SDS011;31091;48.758;9.150;2022-08-01T00:18:30;5.95;;;2.60;;
45354;SDS011;31091;48.758;9.150;2022-08-01T00:21:16;3.90;;;2.75;;
45354;SDS011;31091;48.758;9.150;2022-08-01T00:24:02;3.90;;;2.25;;
45354;SDS011;31091;48.758;9.150;2022-08-01T00:26:47;4.55;;;2.88;;
45354;SDS011;31091;48.758;9.150;2022-08-01T00:29:33;3.47;;;2.20;;
45354;SDS011;31091;48.758;9.150;2022-08-01T00:32:18;3.05;;;2.35;;
45354;SDS011;31091;48.758;9.150;2022-08-01T00:35:04;5.22;;;2.28;;
45354;SDS011;31091;48.758;9.150;2022-08-01T00:37:50;3.72;;;2.40;;
45354;SDS011;31091;48.758;9.150;2022-08-01T00:40:36;2.95;;;2.10;;
45354;SDS011;31091;48.758;9.150;2022-08-01T00:43:22;2.63;;;1.90;;
45354;SDS011;31091;48.758;9.150;2022-08-01T00:46:08;3.38;;;2.15;;
45354;SDS011;31091;48.758;9.150;2022-08-01T00:48:53;3.05;;;2.22;;
45354;SDS011;31091;48.758;9.150;2022-08-01T00:51:40;2.78;;;2.15;;
45354;SDS011;31091;48.758;9.150;2022-08-01T00:54:26;3.17;;;2.08;;
45354;SDS011;31091;48.758;9.150;2022-08-01T00:57:11;3.88;;;2.13;;
45354;SDS011;31091;48.758;9.150;2022-08-01T00:59:57;4.00;;;2.08;;
45354;SDS011;31091;48.758;9.150;2022-08-01T01:02:42;3.97;;;2.03;;
45354;SDS011;31091;48.758;9.150;2022-08-01T01:05:29;3.13;;;2.20;;
45354;SDS011;31091;48.758;9.150;2022-08-01T01:08:18;4.70;;;2.38;;
45354;SDS011;31091;48.758;9.150;2022-08-01T01:11:08;3.55;;;2.40;;
45354;SDS011;31091;48.758;9.150;2022-08-01T01:14:00;6.88;;;2.75;;
45354;SDS011;31091;48.758;9.150;2022-08-01T01:16:46;4.45;;;2.00;;
45354;SDS011;31091;48.758;9.150;2022-08-01T01:19:33;3.60;;;2.13;;
45354;SDS011;31091;48.758;9.150;2022-08-01T01:30:51;3.75;;;2.42;;
45354;SDS011;31091;48.758;9.150;2022-08-01T01:33:39;5.32;;;3.00;;
45354;SDS011;31091;48.758;9.150;2022-08-01T01:36:26;3.30;;;2.20;;
45354;SDS011;31091;48.758;9.150;2022-08-01T01:39:11;2.92;;;2.42;;
45354;SDS011;31091;48.758;9.150;2022-08-01T01:41:59;3.42;;;2.05;;
45354;SDS011;31091;48.758;9.150;2022-08-01T01:44:45;2.35;;;1.92;;
45354;SDS011;31091;48.758;9.150;2022-08-01T01:47:31;5.68;;;2.45;;
45354;SDS011;31091;48.758;9.150;2022-08-01T01:50:19;5.07;;;2.92;;
45354;SDS011;31091;48.758;9.150;2022-08-01T01:53:06;3.65;;;2.13;;
45354;SDS011;31091;48.758;9.150;2022-08-01T01:55:52;4.00;;;2.45;;
45354;SDS011;31091;48.758;9.150;2022-08-01T01:58:39;3.85;;;2.38;;
45354;SDS011;31091;48.758;9.150;2022-08-01T02:01:27;2.88;;;2.45;;
45354;SDS011;31091;48.758;9.150;2022-08-01T02:04:13;4.13;;;2.00;;
45354;SDS011;31091;48.758;9.150;2022-08-01T02:07:00;4.07;;;2.55;;
45354;SDS011;31091;48.758;9.150;2022-08-01T02:09:46;5.00;;;2.50;;
45354;SDS011;31091;48.758;9.150;2022-08-01T02:12:33;3.95;;;2.25;;
45354;SDS011;31091;48.758;9.150;2022-08-01T02:15:20;3.05;;;2.15;;
45354;SDS011;31091;48.758;9.150;2022-08-01T02:18:06;3.85;;;2.53;;
45354;SDS011;31091;48.758;9.150;2022-08-01T02:20:52;3.38;;;2.30;;
45354;SDS011;31091;48.758;9.150;2022-08-01T02:23:39;4.00;;;2.55;;
45354;SDS011;31091;48.758;9.150;2022-08-01T02:26:25;4.28;;;2.42;;
45354;SDS011;31091;48.758;9.150;2022-08-01T02:29:12;3.22;;;2.53;;
45354;SDS011;31091;48.758;9.150;2022-08-01T02:31:58;3.55;;;2.60;;
45354;SDS011;31091;48.758;9.150;2022-08-01T02:34:46;3.70;;;2.28;;
45354;SDS011;31091;48.758;9.150;2022-08-01T02:37:33;2.97;;;2.60;;
45354;SDS011;31091;48.758;9.150;2022-08-01T02:40:18;3.92;;;2.67;;
45354;SDS011;31091;48.758;9.150;2022-08-01T02:43:05;4.03;;;2.55;;
45354;SDS011;31091;48.758;9.150;2022-08-01T02:45:52;4.43;;;2.33;;
45354;SDS011;31091;48.758;9.150;2022-08-01T02:48:38;3.03;;;2.45;;
45354;SDS011;31091;48.758;9.150;2022-08-01T02:51:25;3.97;;;2.65;;
45354;SDS011;31091;48.758;9.150;2022-08-01T02:54:12;3.58;;;2.10;;
45354;SDS011;31091;48.758;9.150;2022-08-01T02:56:58;5.72;;;2.63;;
45354;SDS011;31091;48.758;9.150;2022-08-01T02:59:45;4.03;;;2.58;;
45354;SDS011;31091;48.758;9.150;2022-08-01T03:02:32;4.38;;;2.65;;
45354;SDS011;31091;48.758;9.150;2022-08-01T03:05:18;3.92;;;2.53;;
45354;SDS011;31091;48.758;9.150;2022-08-01T03:08:04;4.03;;;2.38;;
45354;SDS011;31091;48.758;9.150;2022-08-01T03:10:50;3.60;;;2.60;;
45354;SDS011;31091;48.758;9.150;2022-08-01T03:13:37;3.10;;;2.65;;
45354;SDS011;31091;48.758;9.150;2022-08-01T03:16:24;3.13;;;2.50;;
45354;SDS011;31091;48.758;9.150;2022-08-01T03:19:11;2.80;;;2.45;;
45354;SDS011;31091;48.758;9.150;2022-08-01T03:21:58;3.10;;;2.45;;
45354;SDS011;31091;48.758;9.150;2022-08-01T03:24:45;3.08;;;2.50;;
45354;SDS011;31091;48.758;9.150;2022-08-01T03:27:32;9.90;;;2.78;;
45354;SDS011;31091;48.758;9.150;2022-08-01T03:30:18;5.72;;;3.03;;
45354;SDS011;31091;48.758;9.150;2022-08-01T03:33:03;3.50;;;2.60;;
45354;SDS011;31091;48.758;9.150;2022-08-01T03:35:49;5.32;;;2.70;;
45354;SDS011;31091;48.758;9.150;2022-08-01T03:41:25;4.78;;;2.67;;
45354;SDS011;31091;48.758;9.150;2022-08-01T03:44:15;3.25;;;2.90;;
45354;SDS011;31091;48.758;9.150;2022-08-01T03:47:02;4.32;;;2.50;;
45354;SDS011;31091;48.758;9.150;2022-08-01T03:49:49;3.83;;;2.83;;
45354;SDS011;31091;48.758;9.150;2022-08-01T03:52:35;10.02;;;3.33;;
45354;SDS011;31091;48.758;9.150;2022-08-01T03:55:23;4.45;;;2.90;;
45354;SDS011;31091;48.758;9.150;2022-08-01T03:58:09;3.53;;;2.78;;
45354;SDS011;31091;48.758;9.150;2022-08-01T04:00:55;3.58;;;2.83;;
45354;SDS011;31091;48.758;9.150;2022-08-01T04:03:42;6.68;;;3.40;;
45354;SDS011;31091;48.758;9.150;2022-08-01T04:06:28;4.40;;;2.92;;
45354;SDS011;31091;48.758;9.150;2022-08-01T04:09:14;6.43;;;3.78;;
45354;SDS011;31091;48.758;9.150;2022-08-01T04:12:00;4.93;;;2.90;;
45354;SDS011;31091;48.758;9.150;2022-08-01T04:14:46;6.60;;;2.80;;
45354;SDS011;31091;48.758;9.150;2022-08-01T04:17:31;4.30;;;2.80;;
45354;SDS011;31091;48.758;9.150;2022-08-01T04:20:17;4.55;;;2.95;;
45354;SDS011;31091;48.758;9.150;2022-08-01T04:23:03;5.22;;;3.00;;
45354;SDS011;31091;48.758;9.150;2022-08-01T04:25:48;4.07;;;2.70;;
45354;SDS011;31091;48.758;9.150;2022-08-01T04:28:36;4.43;;;3.10;;
45354;SDS011;31091;48.758;9.150;2022-08-01T04:31:22;3.20;;;2.50;;
45354;SDS011;31091;48.758;9.150;2022-08-01T04:34:11;4.35;;;2.58;;
45354;SDS011;31091;48.758;9.150;2022-08-01T04:36:58;5.13;;;2.80;;
45354;SDS011;31091;48.758;9.150;2022-08-01T04:39:45;5.57;;;2.67;;
45354;SDS011;31091;48.758;9.150;2022-08-01T04:42:32;4.20;;;2.88;;
45354;SDS011;31091;48.758;9.150;2022-08-01T04:45:18;3.33;;;2.70;;
45354;SDS011;31091;48.758;9.150;2022-08-01T04:48:07;3.95;;;2.83;;
45354;SDS011;31091;48.758;9.150;2022-08-01T04:50:53;4.10;;;2.65;;
45354;SDS011;31091;48.758;9.150;2022-08-01T04:53:40;4.43;;;2.40;;
45354;SDS011;31091;48.758;9.150;2022-08-01T04:56:26;3.03;;;2.38;;
45354;SDS011;31091;48.758;9.150;2022-08-01T04:59:12;4.90;;;3.17;;
45354;SDS011;31091;48.758;9.150;2022-08-01T05:02:17;4.38;;;2.75;;
45354;SDS011;31091;48.758;9.150;2022-08-01T05:05:03;4.20;;;2.67;;
45354;SDS011;31091;48.758;9.150;2022-08-01T05:07:51;3.25;;;2.50;;
45354;SDS011;31091;48.758;9.150;2022-08-01T05:10:36;5.13;;;2.85;;
45354;SDS011;31091;48.758;9.150;2022-08-01T05:13:22;3.55;;;2.67;;
45354;SDS011;31091;48.758;9.150;2022-08-01T05:16:08;7.32;;;2.80;;
45354;SDS011;31091;48.758;9.150;2022-08-01T05:18:53;4.30;;;2.92;;
45354;SDS011;31091;48.758;9.150;2022-08-01T05:21:39;5.93;;;3.08;;
45354;SDS011;31091;48.758;9.150;2022-08-01T05:24:24;5.43;;;3.03;;
45354;SDS011;31091;48.758;9.150;2022-08-01T05:27:10;9.35;;;3.13;;
45354;SDS011;31091;48.758;9.150;2022-08-01T05:29:56;5.28;;;2.70;;
45354;SDS011;31091;48.758;9.150;2022-08-01T05:32:41;3.35;;;2.50;;
45354;SDS011;31091;48.758;9.150;2022-08-01T05:35:27;7.32;;;2.90;;
45354;SDS011;31091;48.758;9.150;2022-08-01T05:38:12;5.40;;;2.92;;
45354;SDS011;31091;48.758;9.150;2022-08-01T05:40:58;2.83;;;2.13;;
45354;SDS011;31091;48.758;9.150;2022-08-01T05:43:43;6.00;;;2.25;;
45354;SDS011;31091;48.758;9.150;2022-08-01T05:46:29;2.97;;;2.30;;
45354;SDS011;31091;48.758;9.150;2022-08-01T05:49:16;3.05;;;2.40;;
45354;SDS011;31091;48.758;9.150;2022-08-01T05:52:01;5.80;;;2.58;;
45354;SDS011;31091;48.758;9.150;2022-08-01T05:54:47;5.45;;;2.20;;
45354;SDS011;31091;48.758;9.150;2022-08-01T05:57:32;5.28;;;2.35;;
45354;SDS011;31091;48.758;9.150;2022-08-01T06:00:18;3.75;;;2.33;;
45354;SDS011;31091;48.758;9.150;2022-08-01T06:03:03;2.60;;;1.98;;
45354;SDS011;31091;48.758;9.150;2022-08-01T06:05:51;2.83;;;2.00;;
45354;SDS011;31091;48.758;9.150;2022-08-01T06:08:36;3.38;;;2.08;;
45354;SDS011;31091;48.758;9.150;2022-08-01T06:11:22;4.93;;;2.28;;
45354;SDS011;31091;48.758;9.150;2022-08-01T06:14:08;3.08;;;1.90;;
45354;SDS011;31091;48.758;9.150;2022-08-01T06:16:53;1.73;;;1.50;;
45354;SDS011;31091;48.758;9.150;2022-08-01T06:19:39;5.00;;;1.92;;
45354;SDS011;31091;48.758;9.150;2022-08-01T06:22:25;4.68;;;1.60;;
45354;SDS011;31091;48.758;9.150;2022-08-01T06:25:10;3.20;;;1.80;;
45354;SDS011;31091;48.758;9.150;2022-08-01T06:27:56;2.88;;;1.77;;
45354;SDS011;31091;48.758;9.150;2022-08-01T06:30:42;1.95;;;1.45;;
45354;SDS011;31091;48.758;9.150;2022-08-01T06:33:27;3.17;;;1.63;;
45354;SDS011;31091;48.758;9.150;2022-08-01T06:36:13;3.58;;;1.55;;
45354;SDS011;31091;48.758;9.150;2022-08-01T06:38:59;2.15;;;1.50;;
45354;SDS011;31091;48.758;9.150;2022-08-01T06:41:44;2.80;;;1.17;;
45354;SDS011;31091;48.758;9.150;2022-08-01T06:44:32;1.58;;;1.23;;
45354;SDS011;31091;48.758;9.150;2022-08-01T06:47:17;2.72;;;1.35;;
45354;SDS011;31091;48.758;9.150;2022-08-01T06:50:03;2.92;;;1.88;;
45354;SDS011;31091;48.758;9.150;2022-08-01T06:52:49;1.63;;;1.30;;
45354;SDS011;31091;48.758;9.150;2022-08-01T06:55:35;4.65;;;1.38;;
45354;SDS011;31091;48.758;9.150;2022-08-01T06:58:20;2.13;;;1.20;;
45354;SDS011;31091;48.758;9.150;2022-08-01T07:01:06;1.92;;;1.70;;
45354;SDS011;31091;48.758;9.150;2022-08-01T07:03:52;2.17;;;1.58;;
45354;SDS011;31091;48.758;9.150;2022-08-01T07:06:38;2.22;;;1.33;;
45354;SDS011;31091;48.758;9.150;2022-08-01T07:09:23;2.38;;;1.08;;
45354;SDS011;31091;48.758;9.150;2022-08-01T07:12:09;1.05;;;0.95;;
45354;SDS011;31091;48.758;9.150;2022-08-01T07:14:54;1.30;;;1.20;;
45354;SDS011;31091;48.758;9.150;2022-08-01T07:17:40;3.42;;;2.10;;
45354;SDS011;31091;48.758;9.150;2022-08-01T07:20:26;3.30;;;1.17;;
45354;SDS011;31091;48.758;9.150;2022-08-01T07:23:12;2.20;;;1.38;;
45354;SDS011;31091;48.758;9.150;2022-08-01T07:25:58;1.90;;;1.35;;
45354;SDS011;31091;48.758;9.150;2022-08-01T07:28:44;1.73;;;1.20;;
45354;SDS011;31091;48.758;9.150;2022-08-01T07:31:30;2.20;;;1.20;;
45354;SDS011;31091;48.758;9.150;2022-08-01T07:34:15;3.08;;;1.13;;
45354;SDS011;31091;48.758;9.150;2022-08-01T07:37:01;1.55;;;1.38;;
45354;SDS011;31091;48.758;9.150;2022-08-01T07:39:46;3.00;;;1.48;;
45354;SDS011;31091;48.758;9.150;2022-08-01T07:42:32;1.45;;;1.27;;
45354;SDS011;31091;48.758;9.150;2022-08-01T07:45:18;5.18;;;1.20;;
45354;SDS011;31091;48.758;9.150;2022-08-01T07:48:04;2.05;;;1.50;;
45354;SDS011;31091;48.758;9.150;2022-08-01T07:50:50;2.63;;;1.50;;
45354;SDS011;31091;48.758;9.150;2022-08-01T07:53:36;3.60;;;2.20;;
45354;SDS011;31091;48.758;9.150;2022-08-01T07:56:21;3.00;;;1.80;;
45354;SDS011;31091;48.758;9.150;2022-08-01T07:59:09;2.33;;;1.77;;
45354;SDS011;31091;48.758;9.150;2022-08-01T08:01:54;1.75;;;1.65;;
45354;SDS011;31091;48.758;9.150;2022-08-01T08:04:40;4.72;;;1.80;;
45354;SDS011;31091;48.758;9.150;2022-08-01T08:07:26;2.78;;;1.75;;
45354;SDS011;31091;48.758;9.150;2022-08-01T08:10:11;3.30;;;2.15;;
45354;SDS011;31091;48.758;9.150;2022-08-01T08:12:57;2.90;;;1.98;;
45354;SDS011;31091;48.758;9.150;2022-08-01T08:15:43;3.72;;;1.88;;
45354;SDS011;31091;48.758;9.150;2022-08-01T08:18:28;3.00;;;1.92;;
45354;SDS011;31091;48.758;9.150;2022-08-01T08:21:14;4.57;;;2.13;;
45354;SDS011;31091;48.758;9.150;2022-08-01T08:23:59;4.72;;;1.85;;
45354;SDS011;31091;48.758;9.150;2022-08-01T08:27:04;2.33;;;2.00;;
45354;SDS011;31091;48.758;9.150;2022-08-01T08:29:49;3.30;;;2.42;;
45354;SDS011;31091;48.758;9.150;2022-08-01T08:32:35;3.53;;;2.20;;
45354;SDS011;31091;48.758;9.150;2022-08-01T08:35:21;3.10;;;2.33;;
45354;SDS011;31091;48.758;9.150;2022-08-01T08:38:07;2.90;;;2.10;;
45354;SDS011;31091;48.758;9.150;2022-08-01T08:40:52;5.72;;;2.35;;
45354;SDS011;31091;48.758;9.150;2022-08-01T08:43:38;5.00;;;2.20;;
45354;SDS011;31091;48.758;9.150;2022-08-01T08:46:25;3.13;;;2.33;;
45354;SDS011;31091;48.758;9.150;2022-08-01T08:49:12;3.15;;;2.33;;
45354;SDS011;31091;48.758;9.150;2022-08-01T08:52:00;3.37;;;2.00;;
45354;SDS011;31091;48.758;9.150;2022-08-01T08:54:47;3.35;;;1.98;;
45354;SDS011;31091;48.758;9.150;2022-08-01T08:57:32;3.03;;;2.40;;
45354;SDS011;31091;48.758;9.150;2022-08-01T09:00:18;4.10;;;2.75;;
45354;SDS011;31091;48.758;9.150;2022-08-01T09:03:04;3.97;;;2.55;;
45354;SDS011;31091;48.758;9.150;2022-08-01T09:05:49;4.80;;;2.42;;
45354;SDS011;31091;48.758;9.150;2022-08-01T09:08:35;3.33;;;2.55;;
45354;SDS011;31091;48.758;9.150;2022-08-01T09:11:21;3.70;;;2.80;;
45354;SDS011;31091;48.758;9.150;2022-08-01T09:14:14;5.43;;;2.70;;
45354;SDS011;31091;48.758;9.150;2022-08-01T09:17:08;5.95;;;2.40;;
45354;SDS011;31091;48.758;9.150;2022-08-01T09:19:55;7.15;;;2.97;;
45354;SDS011;31091;48.758;9.150;2022-08-01T09:22:41;5.53;;;3.15;;
45354;SDS011;31091;48.758;9.150;2022-08-01T09:25:26;5.93;;;3.20;;
45354;SDS011;31091;48.758;9.150;2022-08-01T09:28:18;8.35;;;3.58;;
45354;SDS011;31091;48.758;9.150;2022-08-01T09:31:13;5.30;;;3.22;;
45354;SDS011;31091;48.758;9.150;2022-08-01T09:34:00;5.55;;;3.72;;
45354;SDS011;31091;48.758;9.150;2022-08-01T09:36:51;5.88;;;3.15;;
45354;SDS011;31091;48.758;9.150;2022-08-01T09:39:38;5.45;;;3.20;;
45354;SDS011;31091;48.758;9.150;2022-08-01T09:42:28;5.20;;;3.78;;
45354;SDS011;31091;48.758;9.150;2022-08-01T09:45:47;6.68;;;4.00;;
45354;SDS011;31091;48.758;9.150;2022-08-01T09:48:25;6.43;;;4.63;;
45354;SDS011;31091;48.758;9.150;2022-08-01T09:51:12;7.82;;;4.70;;
45354;SDS011;31091;48.758;9.150;2022-08-01T09:54:12;8.85;;;4.65;;
45354;SDS011;31091;48.758;9.150;2022-08-01T09:57:16;6.32;;;4.50;;
45354;SDS011;31091;48.758;9.150;2022-08-01T10:00:02;6.80;;;4.15;;
45354;SDS011;31091;48.758;9.150;2022-08-01T10:02:48;5.53;;;4.35;;
45354;SDS011;31091;48.758;9.150;2022-08-01T10:05:34;7.63;;;4.65;;
45354;SDS011;31091;48.758;9.150;2022-08-01T10:08:20;6.53;;;4.75;;
45354;SDS011;31091;48.758;9.150;2022-08-01T10:11:09;5.70;;;4.60;;
45354;SDS011;31091;48.758;9.150;2022-08-01T10:13:55;8.15;;;4.75;;
45354;SDS011;31091;48.758;9.150;2022-08-01T10:16:41;5.45;;;4.18;;
45354;SDS011;31091;48.758;9.150;2022-08-01T10:19:28;6.65;;;4.18;;
45354;SDS011;31091;48.758;9.150;2022-08-01T10:22:14;5.68;;;3.72;;
45354;SDS011;31091;48.758;9.150;2022-08-01T10:25:03;6.35;;;4.00;;
45354;SDS011;31091;48.758;9.150;2022-08-01T10:27:49;6.82;;;3.70;;
45354;SDS011;31091;48.758;9.150;2022-08-01T10:30:35;4.32;;;3.63;;
45354;SDS011;31091;48.758;9.150;2022-08-01T10:33:21;5.07;;;3.10;;
45354;SDS011;31091;48.758;9.150;2022-08-01T10:36:07;5.63;;;3.38;;
45354;SDS011;31091;48.758;9.150;2022-08-01T10:38:54;5.20;;;3.50;;
45354;SDS011;31091;48.758;9.150;2022-08-01T10:41:40;3.40;;;3.08;;
45354;SDS011;31091;48.758;9.150;2022-08-01T10:44:26;3.78;;;2.95;;
45354;SDS011;31091;48.758;9.150;2022-08-01T10:47:13;4.30;;;3.22;;
45354;SDS011;31091;48.758;9.150;2022-08-01T10:53:30;5.70;;;2.90;;
45354;SDS011;31091;48.758;9.150;2022-08-01T10:58:44;3.60;;;3.05;;
45354;SDS011;31091;48.758;9.150;2022-08-01T11:01:31;4.10;;;2.65;;
45354;SDS011;31091;48.758;9.150;2022-08-01T11:04:19;2.80;;;2.25;;
45354;SDS011;31091;48.758;9.150;2022-08-01T11:07:06;3.13;;;2.63;;
45354;SDS011;31091;48.758;9.150;2022-08-01T11:10:04;4.80;;;2.88;;
45354;SDS011;31091;48.758;9.150;2022-08-01T11:12:54;4.10;;;2.90;;
45354;SDS011;31091;48.758;9.150;2022-08-01T11:15:40;3.22;;;2.90;;
45354;SDS011;31091;48.758;9.150;2022-08-01T11:21:11;3.65;;;2.72;;
45354;SDS011;31091;48.758;9.150;2022-08-01T11:23:58;3.65;;;2.90;;
45354;SDS011;31091;48.758;9.150;2022-08-01T11:27:14;4.75;;;3.15;;
45354;SDS011;31091;48.758;9.150;2022-08-01T11:33:04;3.58;;;2.80;;
45354;SDS011;31091;48.758;9.150;2022-08-01T11:41:50;3.38;;;2.20;;
45354;SDS011;31091;48.758;9.150;2022-08-01T11:44:49;4.78;;;2.20;;
45354;SDS011;31091;48.758;9.150;2022-08-01T11:47:46;2.78;;;2.47;;
45354;SDS011;31091;48.758;9.150;2022-08-01T11:50:33;4.65;;;2.33;;
45354;SDS011;31091;48.758;9.150;2022-08-01T11:53:19;3.05;;;2.60;;
45354;SDS011;31091;48.758;9.150;2022-08-01T11:56:05;2.55;;;2.10;;
45354;SDS011;31091;48.758;9.150;2022-08-01T11:58:58;4.25;;;2.28;;
45354;SDS011;31091;48.758;9.150;2022-08-01T12:01:43;3.13;;;2.25;;
45354;SDS011;31091;48.758;9.150;2022-08-01T12:07:49;4.23;;;2.57;;
45354;SDS011;31091;48.758;9.150;2022-08-01T12:10:35;2.78;;;2.22;;
45354;SDS011;31091;48.758;9.150;2022-08-01T12:13:23;5.28;;;2.28;;
45354;SDS011;31091;48.758;9.150;2022-08-01T12:16:09;3.28;;;2.45;;
45354;SDS011;31091;48.758;9.150;2022-08-01T12:18:55;3.22;;;2.10;;
45354;SDS011;31091;48.758;9.150;2022-08-01T12:21:41;3.95;;;2.80;;
45354;SDS011;31091;48.758;9.150;2022-08-01T12:24:26;4.53;;;2.10;;
45354;SDS011;31091;48.758;9.150;2022-08-01T12:27:12;6.10;;;2.70;;
45354;SDS011;31091;48.758;9.150;2022-08-01T12:30:09;5.20;;;2.53;;
45354;SDS011;31091;48.758;9.150;2022-08-01T12:32:55;3.65;;;2.20;;
45354;SDS011;31091;48.758;9.150;2022-08-01T12:35:41;2.40;;;1.88;;
45354;SDS011;31091;48.758;9.150;2022-08-01T12:38:27;3.83;;;2.10;;
45354;SDS011;31091;48.758;9.150;2022-08-01T12:41:15;2.42;;;1.73;;
45354;SDS011;31091;48.758;9.150;2022-08-01T12:44:01;2.95;;;2.35;;
45354;SDS011;31091;48.758;9.150;2022-08-01T12:46:46;2.70;;;2.30;;
45354;SDS011;31091;48.758;9.150;2022-08-01T12:49:32;3.35;;;2.70;;
45354;SDS011;31091;48.758;9.150;2022-08-01T12:52:18;4.72;;;2.50;;
45354;SDS011;31091;48.758;9.150;2022-08-01T12:55:08;3.95;;;2.53;;
45354;SDS011;31091;48.758;9.150;2022-08-01T12:58:07;4.00;;;2.60;;
45354;SDS011;31091;48.758;9.150;2022-08-01T13:01:02;2.80;;;2.40;;
45354;SDS011;31091;48.758;9.150;2022-08-01T13:03:59;4.82;;;1.90;;
45354;SDS011;31091;48.758;9.150;2022-08-01T13:06:45;2.00;;;1.67;;
45354;SDS011;31091;48.758;9.150;2022-08-01T13:09:31;3.05;;;2.22;;
45354;SDS011;31091;48.758;9.150;2022-08-01T13:12:17;2.38;;;2.10;;
45354;SDS011;31091;48.758;9.150;2022-08-01T13:15:19;2.97;;;1.52;;
45354;SDS011;31091;48.758;9.150;2022-08-01T13:21:10;4.68;;;2.17;;
45354;SDS011;31091;48.758;9.150;2022-08-01T13:26:59;8.55;;;3.30;;
45354;SDS011;31091;48.758;9.150;2022-08-01T13:29:45;7.40;;;2.80;;
45354;SDS011;31091;48.758;9.150;2022-08-01T13:32:32;4.18;;;2.70;;
45354;SDS011;31091;48.758;9.150;2022-08-01T13:35:19;5.90;;;2.58;;
45354;SDS011;31091;48.758;9.150;2022-08-01T13:38:05;5.70;;;2.40;;
45354;SDS011;31091;48.758;9.150;2022-08-01T13:40:57;3.92;;;2.20;;
45354;SDS011;31091;48.758;9.150;2022-08-01T13:43:42;7.47;;;3.50;;
45354;SDS011;31091;48.758;9.150;2022-08-01T13:46:28;6.43;;;2.60;;
45354;SDS011;31091;48.758;9.150;2022-08-01T13:49:14;3.15;;;1.75;;
45354;SDS011;31091;48.758;9.150;2022-08-01T13:52:00;2.78;;;1.80;;
45354;SDS011;31091;48.758;9.150;2022-08-01T13:54:45;2.47;;;1.92;;
45354;SDS011;31091;48.758;9.150;2022-08-01T13:57:31;3.47;;;1.90;;
45354;SDS011;31091;48.758;9.150;2022-08-01T14:00:16;5.45;;;2.63;;
45354;SDS011;31091;48.758;9.150;2022-08-01T14:03:02;4.95;;;2.30;;
45354;SDS011;31091;48.758;9.150;2022-08-01T14:05:48;4.10;;;2.45;;
45354;SDS011;31091;48.758;9.150;2022-08-01T14:08:34;2.75;;;2.20;;
45354;SDS011;31091;48.758;9.150;2022-08-01T14:11:20;4.75;;;2.50;;
45354;SDS011;31091;48.758;9.150;2022-08-01T14:14:05;2.80;;;1.80;;
45354;SDS011;31091;48.758;9.150;2022-08-01T14:16:51;4.40;;;2.08;;
45354;SDS011;31091;48.758;9.150;2022-08-01T14:19:37;4.05;;;2.08;;
45354;SDS011;31091;48.758;9.150;2022-08-01T14:22:23;4.05;;;2.42;;
45354;SDS011;31091;48.758;9.150;2022-08-01T14:25:08;2.55;;;2.20;;
45354;SDS011;31091;48.758;9.150;2022-08-01T14:27:54;4.35;;;2.30;;
45354;SDS011;31091;48.758;9.150;2022-08-01T14:30:40;2.53;;;1.80;;
45354;SDS011;31091;48.758;9.150;2022-08-01T14:33:28;3.97;;;2.13;;
45354;SDS011;31091;48.758;9.150;2022-08-01T14:36:14;3.03;;;2.28;;
45354;SDS011;31091;48.758;9.150;2022-08-01T14:38:59;2.90;;;2.03;;
45354;SDS011;31091;48.758;9.150;2022-08-01T14:41:45;4.47;;;2.30;;
45354;SDS011;31091;48.758;9.150;2022-08-01T14:44:31;9.68;;;2.58;;
45354;SDS011;31091;48.758;9.150;2022-08-01T14:47:16;3.55;;;2.17;;
45354;SDS011;31091;48.758;9.150;2022-08-01T14:50:03;4.35;;;2.25;;
45354;SDS011;31091;48.758;9.150;2022-08-01T14:52:48;5.45;;;1.88;;
45354;SDS011;31091;48.758;9.150;2022-08-01T14:55:34;5.40;;;2.22;;
45354;SDS011;31091;48.758;9.150;2022-08-01T14:58:19;4.55;;;2.00;;
45354;SDS011;31091;48.758;9.150;2022-08-01T15:01:05;3.40;;;2.15;;
45354;SDS011;31091;48.758;9.150;2022-08-01T15:03:51;3.95;;;2.20;;
45354;SDS011;31091;48.758;9.150;2022-08-01T15:06:36;2.42;;;1.80;;
45354;SDS011;31091;48.758;9.150;2022-08-01T15:09:22;7.28;;;2.33;;
45354;SDS011;31091;48.758;9.150;2022-08-01T15:12:08;2.45;;;2.00;;
45354;SDS011;31091;48.758;9.150;2022-08-01T15:14:54;3.97;;;2.10;;
45354;SDS011;31091;48.758;9.150;2022-08-01T15:17:39;3.15;;;2.38;;
45354;SDS011;31091;48.758;9.150;2022-08-01T15:20:25;4.30;;;2.47;;
45354;SDS011;31091;48.758;9.150;2022-08-01T15:23:12;3.05;;;1.83;;
45354;SDS011;31091;48.758;9.150;2022-08-01T15:25:57;3.55;;;2.10;;
45354;SDS011;31091;48.758;9.150;2022-08-01T15:28:43;5.72;;;1.80;;
45354;SDS011;31091;48.758;9.150;2022-08-01T15:31:28;2.60;;;2.17;;
45354;SDS011;31091;48.758;9.150;2022-08-01T15:34:14;3.67;;;2.30;;
45354;SDS011;31091;48.758;9.150;2022-08-01T15:37:00;4.38;;;2.17;;
45354;SDS011;31091;48.758;9.150;2022-08-01T15:39:46;4.75;;;3.03;;
45354;SDS011;31091;48.758;9.150;2022-08-01T15:42:32;4.25;;;2.53;;
45354;SDS011;31091;48.758;9.150;2022-08-01T15:45:17;4.78;;;2.20;;
45354;SDS011;31091;48.758;9.150;2022-08-01T15:48:04;3.08;;;2.05;;
45354;SDS011;31091;48.758;9.150;2022-08-01T15:50:50;2.22;;;1.75;;
45354;SDS011;31091;48.758;9.150;2022-08-01T15:53:35;3.55;;;1.90;;
45354;SDS011;31091;48.758;9.150;2022-08-01T15:56:21;6.32;;;2.08;;
45354;SDS011;31091;48.758;9.150;2022-08-01T15:59:06;2.95;;;2.05;;
45354;SDS011;31091;48.758;9.150;2022-08-01T16:01:52;2.45;;;1.58;;
45354;SDS011;31091;48.758;9.150;2022-08-01T16:04:38;4.40;;;1.75;;
45354;SDS011;31091;48.758;9.150;2022-08-01T16:07:23;9.68;;;2.08;;
45354;SDS011;31091;48.758;9.150;2022-08-01T16:10:09;4.68;;;1.77;;
45354;SDS011;31091;48.758;9.150;2022-08-01T16:12:54;3.72;;;1.95;;
45354;SDS011;31091;48.758;9.150;2022-08-01T16:15:40;7.50;;;1.63;;
45354;SDS011;31091;48.758;9.150;2022-08-01T16:18:26;4.82;;;1.55;;
45354;SDS011;31091;48.758;9.150;2022-08-01T16:21:11;1.95;;;1.42;;
45354;SDS011;31091;48.758;9.150;2022-08-01T16:23:57;8.85;;;1.77;;
45354;SDS011;31091;48.758;9.150;2022-08-01T16:26:43;3.72;;;1.70;;
45354;SDS011;31091;48.758;9.150;2022-08-01T16:29:28;4.25;;;1.92;;
45354;SDS011;31091;48.758;9.150;2022-08-01T16:32:16;4.50;;;1.60;;
45354;SDS011;31091;48.758;9.150;2022-08-01T16:35:01;3.65;;;1.45;;
45354;SDS011;31091;48.758;9.150;2022-08-01T16:37:47;3.33;;;1.77;;
45354;SDS011;31091;48.758;9.150;2022-08-01T16:40:32;3.47;;;1.50;;
45354;SDS011;31091;48.758;9.150;2022-08-01T16:43:18;1.98;;;1.50;;
45354;SDS011;31091;48.758;9.150;2022-08-01T16:46:05;1.70;;;1.42;;
45354;SDS011;31091;48.758;9.150;2022-08-01T16:48:50;2.47;;;1.50;;
45354;SDS011;31091;48.758;9.150;2022-08-01T16:51:36;3.95;;;1.70;;
45354;SDS011;31091;48.758;9.150;2022-08-01T16:54:22;3.25;;;1.50;;
45354;SDS011;31091;48.758;9.150;2022-08-01T16:57:08;3.00;;;1.55;;
45354;SDS011;31091;48.758;9.150;2022-08-01T16:59:54;2.67;;;1.77;;
45354;SDS011;31091;48.758;9.150;2022-08-01T17:02:39;3.15;;;1.90;;
45354;SDS011;31091;48.758;9.150;2022-08-01T17:05:25;1.33;;;1.20;;
45354;SDS011;31091;48.758;9.150;2022-08-01T17:08:12;1.55;;;1.30;;
45354;SDS011;31091;48.758;9.150;2022-08-01T17:10:58;3.20;;;1.15;;
45354;SDS011;31091;48.758;9.150;2022-08-01T17:13:43;1.83;;;1.27;;
45354;SDS011;31091;48.758;9.150;2022-08-01T17:16:29;1.75;;;1.30;;
45354;SDS011;31091;48.758;9.150;2022-08-01T17:19:15;2.22;;;1.40;;
45354;SDS011;31091;48.758;9.150;2022-08-01T17:22:01;2.05;;;1.40;;
45354;SDS011;31091;48.758;9.150;2022-08-01T17:24:46;2.67;;;1.30;;